createdAt,value
2022-11-03T00:01:42.058Z,7.37
2022-11-03T00:04:45.822Z,7.38
2022-11-03T00:07:50.794Z,7.46
2022-11-03T00:10:54.432Z,7.43
2022-11-03T00:13:59.128Z,7.52
2022-11-03T00:17:02.704Z,7.62
2022-11-03T00:20:07.639Z,7.72
2022-11-03T00:23:12.672Z,7.55
2022-11-03T00:26:18.977Z,7.65
2022-11-03T00:29:22.605Z,7.73
2022-11-03T00:32:26.566Z,7.73
2022-11-03T00:35:30.172Z,7.85
2022-11-03T00:38:35.985Z,7.81
2022-11-03T00:41:40.565Z,7.96
2022-11-03T00:44:44.231Z,7.98
2022-11-03T00:48:01.685Z,7.93
2022-11-03T00:51:08.997Z,7.95
2022-11-03T00:54:14.025Z,7.86
2022-11-03T00:57:17.686Z,8.11
2022-11-03T01:00:21.511Z,8.10
2022-11-03T01:03:25.111Z,8.07
2022-11-03T01:06:46.051Z,8.10
2022-11-03T01:09:51.043Z,7.98
2022-11-03T01:12:54.666Z,8.02
2022-11-03T01:15:59.878Z,8.22
2022-11-03T01:19:03.478Z,8.12
2022-11-03T01:22:10.703Z,8.16
2022-11-03T01:25:16.221Z,8.01
2022-11-03T01:28:19.840Z,8.01
2022-11-03T01:31:25.933Z,8.01
2022-11-03T01:34:29.581Z,8.13
2022-11-03T01:37:33.131Z,7.95
2022-11-03T01:40:38.093Z,8.01
2022-11-03T01:43:42.907Z,7.95
2022-11-03T01:46:55.322Z,7.89
2022-11-03T01:50:06.833Z,7.91
2022-11-03T01:53:10.537Z,7.91
2022-11-03T01:56:17.694Z,7.95
2022-11-03T01:59:25.164Z,7.98
2022-11-03T02:02:29.596Z,7.91
2022-11-03T02:05:33.348Z,7.87
2022-11-03T02:08:43.508Z,7.99
2022-11-03T02:12:06.525Z,8.03
2022-11-03T02:15:14.625Z,7.81
2022-11-03T02:18:22.687Z,7.89
2022-11-03T02:21:32.285Z,7.89
2022-11-03T02:24:53.979Z,7.67
2022-11-03T02:28:00.509Z,7.67
2022-11-03T02:31:16.186Z,7.59
2022-11-03T02:34:28.862Z,7.62
2022-11-03T02:37:38.765Z,7.65
2022-11-03T02:40:49.708Z,7.64
2022-11-03T02:43:57.888Z,7.64
2022-11-03T02:47:07.108Z,7.50
2022-11-03T02:50:11.613Z,7.43
2022-11-03T02:53:16.903Z,7.50
2022-11-03T02:56:24.798Z,7.46
2022-11-03T02:59:37.753Z,7.47
2022-11-03T03:02:51.474Z,7.59
2022-11-03T03:06:03.646Z,7.52
2022-11-03T03:09:15.372Z,7.53
2022-11-03T03:12:23.249Z,7.45
2022-11-03T03:15:42.229Z,7.41
2022-11-03T03:18:52.442Z,7.51
2022-11-03T03:22:02.510Z,7.51
2022-11-03T03:25:15.270Z,7.60
2022-11-03T03:28:26.475Z,7.59
2022-11-03T03:31:39.718Z,7.49
2022-11-03T03:34:46.518Z,7.65
2022-11-03T03:37:56.029Z,7.55
2022-11-03T03:41:03.545Z,7.58
2022-11-03T03:44:13.958Z,7.52
2022-11-03T03:47:24.362Z,7.59
2022-11-03T03:50:34.198Z,7.71
2022-11-03T03:53:37.870Z,7.60
2022-11-03T03:56:48.358Z,7.57
2022-11-03T03:59:52.363Z,7.59
2022-11-03T04:03:00.131Z,7.60
2022-11-03T04:06:03.770Z,7.53
2022-11-03T04:09:07.444Z,7.57
2022-11-03T04:12:43.630Z,7.64
2022-11-03T04:16:04.726Z,7.57
2022-11-03T04:19:30.118Z,7.66
2022-11-03T04:22:35.317Z,7.54
2022-11-03T04:25:38.986Z,7.57
2022-11-03T04:28:43.382Z,7.51
2022-11-03T04:31:47.107Z,7.59
2022-11-03T04:34:52.072Z,7.55
2022-11-03T04:38:02.027Z,7.56
2022-11-03T04:41:17.002Z,7.59
2022-11-03T04:44:20.829Z,7.65
2022-11-03T04:47:26.781Z,7.57
2022-11-03T04:50:31.783Z,7.61
2022-11-03T04:53:35.699Z,7.56
2022-11-03T04:56:39.345Z,7.54
2022-11-03T04:59:46.451Z,7.72
2022-11-03T05:02:55.879Z,7.71
2022-11-03T05:06:12.486Z,7.70
2022-11-03T05:09:22.110Z,7.70
2022-11-03T05:12:26.427Z,7.70
2022-11-03T05:15:36.778Z,7.79
2022-11-03T05:18:44.558Z,7.71
2022-11-03T05:21:52.164Z,7.72
2022-11-03T05:25:02.042Z,7.73
2022-11-03T05:28:17.057Z,7.76
2022-11-03T05:31:26.509Z,7.79
2022-11-03T05:34:42.390Z,7.90
2022-11-03T05:37:47.478Z,7.93
2022-11-03T05:40:55.282Z,7.96
2022-11-03T05:44:04.643Z,8.01
2022-11-03T05:47:20.035Z,7.86
2022-11-03T05:50:26.687Z,7.80
2022-11-03T05:53:38.889Z,7.81
2022-11-03T05:56:42.591Z,7.88
2022-11-03T05:59:50.729Z,7.97
2022-11-03T06:02:55.352Z,8.02
2022-11-03T06:06:01.314Z,8.11
2022-11-03T06:09:17.714Z,8.00
2022-11-03T06:12:23.805Z,7.92
2022-11-03T06:15:33.428Z,8.02
2022-11-03T06:18:39.573Z,8.02
2022-11-03T06:21:46.134Z,7.99
2022-11-03T06:24:51.782Z,8.01
2022-11-03T06:28:01.570Z,8.02
2022-11-03T06:31:11.782Z,7.98
2022-11-03T06:34:38.015Z,7.90
2022-11-03T06:37:43.341Z,7.97
2022-11-03T06:40:53.046Z,8.08
2022-11-03T06:43:57.603Z,8.16
2022-11-03T06:47:10.373Z,8.11
2022-11-03T06:50:26.809Z,8.17
2022-11-03T06:53:34.994Z,8.26
2022-11-03T06:56:40.004Z,8.30
2022-11-03T06:59:43.677Z,8.29
2022-11-03T07:03:09.192Z,8.29
2022-11-03T07:06:24.534Z,8.31
2022-11-03T07:09:28.407Z,8.45
2022-11-03T07:12:33.446Z,8.38
2022-11-03T07:15:39.922Z,8.34
2022-11-03T07:18:45.029Z,8.57
2022-11-03T07:21:51.586Z,8.55
2022-11-03T07:24:58.588Z,8.53
2022-11-03T07:28:05.245Z,8.68
2022-11-03T07:31:20.147Z,8.61
2022-11-03T07:34:29.753Z,8.61
2022-11-03T07:37:33.742Z,8.69
2022-11-03T07:40:38.578Z,8.71
2022-11-03T07:43:49.441Z,8.82
2022-11-03T07:46:53.080Z,8.81
2022-11-03T07:49:57.703Z,8.78
2022-11-03T07:53:01.506Z,8.81
2022-11-03T07:56:19.949Z,8.89
2022-11-03T07:59:32.486Z,8.88
2022-11-03T08:02:42.694Z,8.93
2022-11-03T08:05:46.257Z,9.03
2022-11-03T08:08:49.937Z,8.92
2022-11-03T08:11:54.418Z,8.96
2022-11-03T08:14:59.688Z,9.02
2022-11-03T08:18:03.287Z,9.04
2022-11-03T08:21:07.303Z,9.14
2022-11-03T08:24:10.946Z,9.24
2022-11-03T08:27:14.643Z,9.33
2022-11-03T08:30:19.716Z,9.40
2022-11-03T08:33:23.339Z,9.47
2022-11-03T08:36:26.905Z,9.40
2022-11-03T08:39:31.710Z,9.47
2022-11-03T08:42:35.422Z,9.53
2022-11-03T08:45:40.520Z,9.62
2022-11-03T08:48:44.040Z,9.67
2022-11-03T08:51:47.600Z,9.87
2022-11-03T08:54:51.377Z,10.13
2022-11-03T08:57:55.058Z,10.01
2022-11-03T09:01:00.108Z,10.11
2022-11-03T09:04:04.201Z,10.21
2022-11-03T09:07:07.838Z,10.40
2022-11-03T09:10:22.044Z,10.37
2022-11-03T09:13:28.372Z,10.53
2022-11-03T09:16:33.416Z,10.39
2022-11-03T09:19:37.033Z,10.50
2022-11-03T09:22:40.700Z,10.69
2022-11-03T09:25:44.268Z,10.78
2022-11-03T09:28:49.453Z,10.74
2022-11-03T09:31:54.625Z,10.87
2022-11-03T09:34:58.217Z,10.88
2022-11-03T09:38:01.782Z,11.13
2022-11-03T09:41:13.912Z,11.22
2022-11-03T09:44:29.724Z,11.30
2022-11-03T09:47:38.502Z,11.36
2022-11-03T09:50:42.388Z,11.60
2022-11-03T09:53:46.478Z,11.34
2022-11-03T09:56:50.302Z,11.59
2022-11-03T09:59:55.066Z,11.62
2022-11-03T10:03:00.093Z,11.74
2022-11-03T10:06:04.861Z,11.71
2022-11-03T10:09:15.754Z,11.68
2022-11-03T10:12:20.353Z,11.66
2022-11-03T10:15:26.642Z,11.79
2022-11-03T10:18:31.915Z,11.62
2022-11-03T10:21:36.078Z,11.80
2022-11-03T10:24:39.663Z,11.89
2022-11-03T10:27:43.210Z,11.74
2022-11-03T10:34:34.918Z,11.84
2022-11-03T10:37:39.879Z,11.83
2022-11-03T10:40:48.332Z,11.90
2022-11-03T10:44:05.406Z,12.02
2022-11-03T10:47:24.521Z,12.06
2022-11-03T10:50:30.190Z,11.96
2022-11-03T10:53:33.963Z,12.06
2022-11-03T10:56:38.090Z,12.08
2022-11-03T10:59:42.658Z,12.24
2022-11-03T11:02:48.247Z,11.95
2022-11-03T11:05:53.229Z,12.08
2022-11-03T11:09:04.180Z,12.18
2022-11-03T11:12:17.956Z,12.17
2022-11-03T11:15:43.033Z,12.11
2022-11-03T11:19:03.635Z,11.96
2022-11-03T11:22:16.018Z,12.14
2022-11-03T11:25:20.313Z,12.35
2022-11-03T11:28:23.934Z,12.27
2022-11-03T11:31:33.095Z,12.24
2022-11-03T11:34:43.484Z,12.33
2022-11-03T11:37:48.466Z,12.52
2022-11-03T11:40:52.764Z,12.63
2022-11-03T11:44:35.464Z,12.70
2022-11-03T11:47:52.235Z,12.78
2022-11-03T11:50:59.120Z,12.87
2022-11-03T11:54:18.124Z,12.78
2022-11-03T11:57:23.772Z,12.83
2022-11-03T12:00:31.476Z,12.93
2022-11-03T12:03:45.398Z,12.81
2022-11-03T12:06:49.190Z,12.78
2022-11-03T12:09:54.278Z,12.80
2022-11-03T12:12:59.857Z,12.53
2022-11-03T12:16:03.579Z,12.77
2022-11-03T12:19:45.023Z,12.53
2022-11-03T12:22:48.930Z,12.50
2022-11-03T12:25:53.914Z,12.56
2022-11-03T12:28:57.558Z,12.62
2022-11-03T12:32:01.125Z,12.44
2022-11-03T12:35:05.700Z,12.50
2022-11-03T12:38:09.396Z,12.58
2022-11-03T12:41:25.583Z,12.57
2022-11-03T12:44:29.590Z,12.50
2022-11-03T12:47:33.196Z,12.58
2022-11-03T12:50:37.639Z,12.58
2022-11-03T12:53:42.169Z,12.55
2022-11-03T12:56:47.149Z,12.51
2022-11-03T12:59:51.493Z,12.57
2022-11-03T13:02:55.723Z,12.45
2022-11-03T13:05:59.455Z,12.35
2022-11-03T13:09:03.109Z,12.37
2022-11-03T13:12:32.822Z,12.33
2022-11-03T13:15:36.877Z,12.20
2022-11-03T13:18:40.441Z,12.16
2022-11-03T13:21:44.020Z,12.24
2022-11-03T13:24:47.715Z,12.21
2022-11-03T13:27:54.511Z,12.08
2022-11-03T13:30:58.097Z,12.17
2022-11-03T13:34:01.825Z,12.17
2022-11-03T13:37:05.954Z,12.10
2022-11-03T13:40:35.546Z,12.05
2022-11-03T13:43:38.002Z,12.08
2022-11-03T13:46:43.111Z,12.09
2022-11-03T13:50:12.987Z,12.01
2022-11-03T14:00:02.040Z,12.04
2022-11-03T14:06:32.082Z,11.96
2022-11-03T14:12:40.466Z,11.94
2022-11-03T14:15:45.691Z,11.87
2022-11-03T14:18:49.388Z,11.81
2022-11-03T14:21:53.193Z,11.83
2022-11-03T14:24:56.787Z,11.67
2022-11-03T14:28:00.489Z,11.61
2022-11-03T14:31:06.757Z,11.58
2022-11-03T14:34:10.455Z,11.58
2022-11-03T14:37:15.238Z,11.57
2022-11-03T14:40:33.300Z,11.47
2022-11-03T14:43:37.065Z,11.49
2022-11-03T14:46:42.320Z,11.45
2022-11-03T14:49:47.004Z,11.37
2022-11-03T14:52:50.588Z,11.39
2022-11-03T14:55:54.082Z,11.48
2022-11-03T14:58:57.825Z,11.39
2022-11-03T15:02:03.846Z,11.34
2022-11-03T15:05:28.174Z,11.30
2022-11-03T15:08:32.598Z,11.28
2022-11-03T15:11:37.378Z,11.27
2022-11-03T15:14:41.124Z,11.22
2022-11-03T15:17:46.157Z,11.24
2022-11-03T15:20:50.026Z,11.19
2022-11-03T15:27:17.390Z,11.12
2022-11-03T15:30:21.796Z,11.13
2022-11-03T15:33:27.002Z,11.11
2022-11-03T15:36:30.916Z,11.11
2022-11-03T15:39:34.512Z,11.08
2022-11-03T15:42:38.026Z,11.06
2022-11-03T15:45:41.730Z,11.09
2022-11-03T15:48:48.730Z,11.15
2022-11-03T15:51:52.351Z,11.06
2022-11-03T15:54:56.087Z,11.14
2022-11-03T15:57:59.780Z,11.04
2022-11-03T16:01:04.150Z,11.07
2022-11-03T16:04:09.230Z,11.06
2022-11-03T16:07:12.855Z,10.99
2022-11-03T16:10:17.695Z,11.00
2022-11-03T16:13:21.332Z,10.96
2022-11-03T16:16:24.940Z,10.97
2022-11-03T16:19:29.872Z,10.92
2022-11-03T16:22:33.467Z,10.82
2022-11-03T16:25:38.136Z,10.86
2022-11-03T16:28:41.755Z,10.85
2022-11-03T16:31:46.945Z,10.92
2022-11-03T16:34:52.304Z,10.82
2022-11-03T16:37:56.035Z,10.80
2022-11-03T16:40:59.574Z,10.92
2022-11-03T16:44:09.631Z,10.97
2022-11-03T16:47:13.336Z,10.84
2022-11-03T16:50:19.670Z,10.88
2022-11-03T16:53:23.296Z,10.87
2022-11-03T16:56:26.965Z,10.87
2022-11-03T16:59:30.614Z,10.84
2022-11-03T17:02:34.455Z,10.89
2022-11-03T17:05:39.910Z,10.90
2022-11-03T17:08:59.005Z,10.88
2022-11-03T17:12:02.590Z,10.88
2022-11-03T17:15:07.903Z,10.93
2022-11-03T17:18:11.633Z,10.95
2022-11-03T17:21:16.613Z,10.82
2022-11-03T17:24:20.581Z,10.82
2022-11-03T17:27:29.174Z,10.95
2022-11-03T17:30:37.906Z,10.95
2022-11-03T17:33:41.518Z,10.91
2022-11-03T17:36:46.777Z,10.90
2022-11-03T17:39:51.157Z,10.90
2022-11-03T17:42:55.095Z,10.90
2022-11-03T17:45:59.085Z,10.86
2022-11-03T17:49:02.845Z,10.83
2022-11-03T17:52:14.455Z,10.78
2022-11-03T17:55:23.683Z,10.75
2022-11-03T17:58:31.589Z,10.74
2022-11-03T18:01:36.191Z,10.70
2022-11-03T18:04:39.817Z,10.75
2022-11-03T18:07:44.742Z,10.72
2022-11-03T18:10:52.010Z,10.67
2022-11-03T18:13:57.706Z,10.76
2022-11-03T18:17:01.399Z,10.71
2022-11-03T18:20:14.425Z,10.80
2022-11-03T18:23:22.148Z,10.83
2022-11-03T18:26:27.706Z,10.86
2022-11-03T18:29:31.288Z,10.87
2022-11-03T18:32:36.034Z,10.91
2022-11-03T18:35:39.804Z,10.87
2022-11-03T18:38:48.488Z,10.91
2022-11-03T18:41:52.414Z,10.91
2022-11-03T18:45:02.305Z,10.88
2022-11-03T18:48:07.548Z,10.94
2022-11-03T18:51:11.853Z,10.88
2022-11-03T18:54:21.419Z,10.85
2022-11-03T18:57:26.569Z,10.81
2022-11-03T19:00:30.164Z,10.79
2022-11-03T19:03:34.284Z,10.78
2022-11-03T19:06:39.070Z,10.80
2022-11-03T19:09:45.197Z,10.84
2022-11-03T19:12:49.661Z,10.87
2022-11-03T19:15:53.370Z,10.81
2022-11-03T19:18:56.933Z,10.80
2022-11-03T19:22:00.479Z,10.78
2022-11-03T19:25:06.533Z,10.79
2022-11-03T19:28:14.460Z,10.73
2022-11-03T19:31:26.923Z,10.79
2022-11-03T19:34:35.812Z,10.75
2022-11-03T19:37:39.718Z,10.72
2022-11-03T19:41:00.001Z,10.74
2022-11-03T19:44:07.442Z,10.74
2022-11-03T19:47:18.050Z,10.79
2022-11-03T19:50:35.376Z,10.71
2022-11-03T19:53:43.220Z,10.76
2022-11-03T19:56:51.384Z,10.66
2022-11-03T19:59:59.149Z,10.67
2022-11-03T20:03:03.514Z,10.68
2022-11-03T20:06:08.628Z,10.74
2022-11-03T20:09:19.464Z,10.71
2022-11-03T20:12:27.041Z,10.72
2022-11-03T20:15:38.695Z,10.71
2022-11-03T20:18:42.644Z,10.76
2022-11-03T20:21:46.445Z,10.69
2022-11-03T20:24:50.591Z,10.65
2022-11-03T20:27:56.782Z,10.69
2022-11-03T20:31:01.319Z,10.64
2022-11-03T20:34:05.045Z,10.58
2022-11-03T20:37:19.198Z,10.56
2022-11-03T20:40:25.930Z,10.63
2022-11-03T20:43:34.434Z,10.57
2022-11-03T20:46:38.087Z,10.53
2022-11-03T20:49:41.933Z,10.47
2022-11-03T20:52:47.861Z,10.52
2022-11-03T20:55:52.953Z,10.47
2022-11-03T20:58:58.466Z,10.42
2022-11-03T21:02:02.089Z,10.42
2022-11-03T21:05:14.681Z,10.47
2022-11-03T21:08:18.509Z,10.36
2022-11-03T21:11:27.454Z,10.29
2022-11-03T21:14:33.898Z,10.35
2022-11-03T21:17:54.887Z,10.36
2022-11-03T21:20:58.846Z,10.24
2022-11-03T21:24:02.417Z,10.25
2022-11-03T21:27:06.074Z,10.27
2022-11-03T21:30:13.163Z,10.17
2022-11-03T21:33:17.609Z,10.19
2022-11-03T21:36:21.207Z,10.13
2022-11-03T21:39:25.361Z,10.17
2022-11-03T21:42:46.290Z,10.20
2022-11-03T21:45:52.471Z,10.13
2022-11-03T21:49:13.292Z,10.18
2022-11-03T21:52:19.803Z,10.19
2022-11-03T21:55:23.509Z,10.17
2022-11-03T21:58:27.313Z,10.18
2022-11-03T22:01:32.539Z,10.18
2022-11-03T22:04:36.663Z,10.20
2022-11-03T22:07:40.401Z,10.17
2022-11-03T22:10:44.093Z,10.17
2022-11-03T22:13:48.358Z,10.17
2022-11-03T22:16:52.581Z,10.09
2022-11-03T22:20:13.543Z,10.05
2022-11-03T22:23:35.073Z,10.06
2022-11-03T22:26:57.068Z,10.04
2022-11-03T22:30:18.941Z,10.02
2022-11-03T22:33:24.865Z,9.97
2022-11-03T22:36:28.562Z,9.92
2022-11-03T22:39:49.304Z,9.88
2022-11-03T22:43:10.791Z,9.84
2022-11-03T22:46:17.264Z,9.83
2022-11-03T22:49:22.237Z,9.75
2022-11-03T22:52:25.810Z,9.71
2022-11-03T22:55:28.424Z,9.69
2022-11-03T22:58:31.978Z,9.65
2022-11-03T23:01:36.260Z,9.61
2022-11-03T23:04:41.285Z,9.65
2022-11-03T23:07:44.894Z,9.63
2022-11-03T23:10:48.432Z,9.66
2022-11-03T23:13:57.805Z,9.75
2022-11-03T23:17:01.351Z,9.73
2022-11-03T23:20:24.930Z,9.76
2022-11-03T23:23:45.972Z,9.73
2022-11-03T23:26:51.226Z,9.74
2022-11-03T23:29:54.846Z,9.79
2022-11-03T23:32:58.518Z,9.94
2022-11-03T23:36:06.569Z,9.84
2022-11-03T23:39:15.510Z,9.86
2022-11-03T23:42:19.041Z,9.90
2022-11-03T23:45:39.896Z,9.87
2022-11-03T23:48:49.469Z,9.88
2022-11-03T23:51:54.551Z,10.17
2022-11-03T23:54:58.170Z,10.07
2022-11-03T23:58:18.850Z,10.06
